Time;durP1;ratioP1;P1;durP2;ratioP2;P2;SDS_P1;SDS_P2;PMS_P1;PMS_P2;Temp;Humidity;BMP_temperature;BMP_pressure;BME280_temperature;BME280_humidity;BME280_pressure;Samples;Min_cycle;Max_cycle;Signal;HPM_P1;HPM_P2
2022/12/18 00:00:49;;;;;;;45.90;23.73;;;-3.40;99.90;;;;;;5067761;28;20311;-52
2022/12/18 00:03:16;;;;;;;48.13;21.77;;;-3.40;99.90;;;;;;5058828;28;20278;-51
2022/12/18 00:05:49;;;;;;;45.90;24.03;;;-3.40;99.90;;;;;;5060818;28;20704;-52
2022/12/18 00:08:17;;;;;;;47.83;25.10;;;-3.40;99.90;;;;;;5056718;28;20436;-53
2022/12/18 00:10:44;;;;;;;47.57;23.40;;;-3.30;99.90;;;;;;5052253;28;20198;-51
2022/12/18 00:13:12;;;;;;;48.30;24.13;;;-3.40;99.90;;;;;;5050408;28;20916;-51
2022/12/18 00:15:41;;;;;;;53.57;27.00;;;-3.40;99.90;;;;;;5059011;28;20208;-51
2022/12/18 00:18:08;;;;;;;52.80;23.70;;;-3.50;99.90;;;;;;5061476;28;20541;-52
2022/12/18 00:20:37;;;;;;;51.93;25.10;;;-3.50;99.90;;;;;;5061855;28;20442;-52
2022/12/18 00:23:05;;;;;;;57.23;27.37;;;-3.50;99.90;;;;;;5070704;28;20432;-53
2022/12/18 00:25:34;;;;;;;52.10;24.30;;;-3.50;99.90;;;;;;5069749;28;20479;-52
2022/12/18 00:28:01;;;;;;;48.53;25.30;;;-3.50;99.90;;;;;;5063015;28;21017;-51
2022/12/18 00:30:28;;;;;;;48.73;24.77;;;-3.50;99.90;;;;;;5069169;28;20580;-52
2022/12/18 00:32:57;;;;;;;50.30;24.97;;;-3.50;99.90;;;;;;5066708;28;20697;-51
2022/12/18 00:35:24;;;;;;;49.03;23.43;;;-3.40;99.90;;;;;;5057849;28;20471;-51
2022/12/18 00:37:51;;;;;;;41.00;24.13;;;-3.40;99.90;;;;;;5062134;28;20197;-51
2022/12/18 00:40:18;;;;;;;57.67;25.87;;;-3.40;99.90;;;;;;5070513;28;20202;-52
2022/12/18 00:42:56;;;;;;;51.20;25.77;;;-3.30;99.90;;;;;;5070431;28;20497;-51
2022/12/18 00:45:23;;;;;;;54.10;26.87;;;-3.30;99.90;;;;;;5068177;28;20800;-52
2022/12/18 00:47:50;;;;;;;52.03;26.10;;;-3.30;99.90;;;;;;5059176;28;20203;-51
2022/12/18 00:50:19;;;;;;;53.43;23.90;;;-3.40;99.90;;;;;;5050126;28;20201;-53
2022/12/18 00:52:46;;;;;;;47.27;24.07;;;-3.40;99.90;;;;;;5049713;28;21042;-51
2022/12/18 00:55:14;;;;;;;55.83;26.00;;;-3.40;99.90;;;;;;5055871;28;20512;-54
2022/12/18 00:57:41;;;;;;;45.20;23.97;;;-3.50;99.90;;;;;;5069675;28;20665;-51
2022/12/18 01:00:10;;;;;;;55.90;24.33;;;-3.50;99.90;;;;;;5071221;28;20201;-52
2022/12/18 01:02:37;;;;;;;44.10;22.00;;;-3.50;99.90;;;;;;5064022;28;20275;-51
2022/12/18 01:05:05;;;;;;;45.77;24.73;;;-3.50;99.90;;;;;;5058784;28;20270;-52
2022/12/18 01:07:33;;;;;;;47.90;24.97;;;-3.60;99.90;;;;;;5065664;28;20942;-51
2022/12/18 01:10:00;;;;;;;47.70;22.67;;;-3.60;99.90;;;;;;5073212;28;20461;-52
2022/12/18 01:12:27;;;;;;;43.97;21.67;;;-3.60;99.90;;;;;;5057937;28;20523;-52
2022/12/18 01:14:54;;;;;;;57.70;23.73;;;-3.60;99.90;;;;;;5055873;28;20199;-52
2022/12/18 01:17:21;;;;;;;49.63;24.53;;;-3.60;99.90;;;;;;5066987;28;20199;-51
2022/12/18 01:19:48;;;;;;;51.60;25.50;;;-3.50;99.90;;;;;;5072650;28;20555;-52
2022/12/18 01:22:15;;;;;;;58.27;29.23;;;-3.40;99.90;;;;;;5063720;28;20310;-51
2022/12/18 01:24:43;;;;;;;48.60;24.10;;;-3.40;99.90;;;;;;5055691;28;20481;-52
2022/12/18 01:27:10;;;;;;;58.63;26.43;;;-3.40;99.90;;;;;;5068001;28;20441;-51
2022/12/18 01:29:37;;;;;;;53.70;25.53;;;-3.30;99.90;;;;;;5063414;28;20465;-51
2022/12/18 01:32:05;;;;;;;63.73;27.63;;;-3.20;99.90;;;;;;5071497;28;20226;-52
2022/12/18 01:34:31;;;;;;;57.30;26.73;;;-3.30;99.90;;;;;;5059460;28;20245;-53
2022/12/18 01:36:58;;;;;;;62.17;28.13;;;-3.30;99.90;;;;;;5053519;28;20245;-52
2022/12/18 01:39:25;;;;;;;56.23;24.73;;;-3.30;99.90;;;;;;5053695;28;20653;-51
2022/12/18 01:42:02;;;;;;;66.10;28.30;;;-3.30;99.90;;;;;;5058355;28;21000;-52
2022/12/18 01:44:58;;;;;;;58.73;26.00;;;-3.20;99.90;;;;;;5065336;28;20472;-51
2022/12/18 01:47:29;;;;;;;59.37;24.53;;;-3.30;99.90;;;;;;5061750;28;20205;-52
2022/12/18 01:49:57;;;;;;;51.57;24.73;;;-3.30;99.90;;;;;;5053474;28;20265;-52
2022/12/18 01:52:26;;;;;;;51.90;22.50;;;-3.30;99.90;;;;;;5058195;28;20778;-52
2022/12/18 01:54:55;;;;;;;64.93;27.77;;;-3.30;99.90;;;;;;5064692;28;20854;-52
2022/12/18 01:57:24;;;;;;;63.00;24.83;;;-3.30;99.90;;;;;;5073037;28;20202;-51
2022/12/18 01:59:55;;;;;;;50.63;24.43;;;-3.30;99.90;;;;;;5063038;28;20471;-51
2022/12/18 02:02:23;;;;;;;65.03;27.10;;;-3.30;99.90;;;;;;5062583;28;20282;-52
2022/12/18 02:04:50;;;;;;;59.73;27.73;;;-3.30;99.90;;;;;;5064395;28;20653;-52
2022/12/18 02:07:23;;;;;;;54.07;25.63;;;-3.30;99.90;;;;;;5073362;28;20507;-52
2022/12/18 02:09:58;;;;;;;57.23;27.00;;;-3.30;99.90;;;;;;5073285;28;20213;-51
2022/12/18 02:12:31;;;;;;;67.00;27.30;;;-3.20;99.90;;;;;;5069834;28;20275;-52
2022/12/18 02:15:06;;;;;;;58.30;26.00;;;-3.20;99.90;;;;;;5061166;28;20593;-52
2022/12/18 02:17:39;;;;;;;57.50;24.93;;;-3.20;99.90;;;;;;5053254;28;20213;-52
2022/12/18 02:20:14;;;;;;;58.10;25.47;;;-3.20;99.90;;;;;;5053283;28;20207;-52
2022/12/18 02:22:51;;;;;;;72.27;30.13;;;-3.10;99.90;;;;;;5065441;28;20319;-52
2022/12/18 02:25:33;;;;;;;60.07;26.77;;;-3.10;99.90;;;;;;5071871;28;20225;-51
2022/12/18 02:28:05;;;;;;;53.43;24.80;;;-3.00;99.90;;;;;;5079207;28;20212;-52
2022/12/18 02:30:34;;;;;;;59.03;25.20;;;-3.00;99.90;;;;;;5091417;28;20262;-52
2022/12/18 02:33:03;;;;;;;55.70;24.43;;;-3.00;99.90;;;;;;5089042;28;20439;-52
2022/12/18 02:35:31;;;;;;;54.60;25.73;;;-3.00;99.90;;;;;;5062496;28;20202;-52
2022/12/18 02:37:59;;;;;;;53.87;23.47;;;-3.00;99.90;;;;;;5062979;28;20203;-51
2022/12/18 02:40:28;;;;;;;50.03;23.83;;;-3.10;99.90;;;;;;5058650;28;20334;-51
2022/12/18 02:42:56;;;;;;;40.97;20.67;;;-3.20;99.90;;;;;;5061373;28;20706;-52
2022/12/18 02:45:24;;;;;;;46.30;23.93;;;-3.30;99.90;;;;;;5067807;28;20227;-51
2022/12/18 02:47:51;;;;;;;51.03;23.40;;;-3.20;99.90;;;;;;5072770;28;20263;-52
2022/12/18 02:50:31;;;;;;;52.77;24.43;;;-3.20;99.90;;;;;;5053806;28;20256;-50
2022/12/18 02:53:11;;;;;;;46.53;23.27;;;-3.30;99.90;;;;;;5060665;28;20201;-52
2022/12/18 02:55:52;;;;;;;48.23;22.97;;;-3.30;99.90;;;;;;5063007;28;20243;-51
2022/12/18 02:58:26;;;;;;;51.60;23.43;;;-3.30;99.90;;;;;;5061367;28;20199;-51
2022/12/18 03:01:00;;;;;;;47.33;23.10;;;-3.20;99.90;;;;;;5065878;28;20246;-51
2022/12/18 03:03:32;;;;;;;48.97;23.43;;;-3.20;99.90;;;;;;5063835;28;20271;-52
2022/12/18 03:06:05;;;;;;;54.47;24.37;;;-3.20;99.90;;;;;;5064126;28;20222;-51
2022/12/18 03:08:37;;;;;;;46.63;24.23;;;-3.10;99.90;;;;;;5067843;28;20267;-52
2022/12/18 03:11:08;;;;;;;63.77;25.97;;;-3.10;99.90;;;;;;5062133;28;20688;-51
2022/12/18 03:13:38;;;;;;;56.30;24.13;;;-3.10;99.90;;;;;;5054091;28;20271;-52
2022/12/18 03:16:11;;;;;;;47.10;23.07;;;-3.10;99.90;;;;;;5071893;28;20197;-52
2022/12/18 03:18:47;;;;;;;48.63;23.13;;;-3.00;99.90;;;;;;5071808;28;20732;-53
2022/12/18 03:21:18;;;;;;;48.33;24.70;;;-2.90;99.90;;;;;;5068943;28;20230;-53
2022/12/18 03:23:49;;;;;;;50.00;24.03;;;-2.80;99.90;;;;;;5070752;28;20200;-50
2022/12/18 03:26:20;;;;;;;52.77;23.63;;;-2.80;99.90;;;;;;5071452;28;20689;-50
2022/12/18 03:28:52;;;;;;;64.77;27.43;;;-2.90;99.90;;;;;;5071755;28;20255;-50
2022/12/18 03:31:23;;;;;;;46.90;22.90;;;-2.90;99.90;;;;;;5070801;28;20226;-50
2022/12/18 03:33:53;;;;;;;52.37;23.23;;;-2.90;99.90;;;;;;5068495;28;20796;-50
2022/12/18 03:36:21;;;;;;;53.87;23.90;;;-2.90;99.90;;;;;;5067400;28;20631;-50
2022/12/18 03:38:48;;;;;;;53.20;24.07;;;-2.90;99.90;;;;;;5058416;28;20198;-50
2022/12/18 03:41:20;;;;;;;43.97;20.87;;;-2.80;99.90;;;;;;5063636;28;20279;-50
2022/12/18 03:43:53;;;;;;;56.23;23.93;;;-2.90;99.90;;;;;;5064564;28;20194;-50
2022/12/18 03:46:28;;;;;;;47.23;23.00;;;-2.90;99.90;;;;;;5059613;28;20665;-50
2022/12/18 03:49:02;;;;;;;43.30;21.10;;;-2.80;99.90;;;;;;5069678;28;20588;-50
2022/12/18 03:51:37;;;;;;;47.57;22.60;;;-2.70;99.90;;;;;;5065450;28;20614;-50
2022/12/18 03:54:07;;;;;;;44.27;22.40;;;-2.80;99.90;;;;;;5055328;28;20259;-50
2022/12/18 03:56:39;;;;;;;42.90;20.40;;;-2.70;99.90;;;;;;5050825;28;20240;-50
2022/12/18 03:59:08;;;;;;;45.33;22.23;;;-2.70;99.90;;;;;;5051094;28;20194;-50
2022/12/18 04:01:40;;;;;;;40.73;20.63;;;-2.70;99.90;;;;;;5061285;28;20287;-50
2022/12/18 04:04:09;;;;;;;35.97;18.60;;;-2.70;99.90;;;;;;5057438;28;20201;-50
2022/12/18 04:06:37;;;;;;;39.97;18.90;;;-2.70;99.90;;;;;;5067591;28;20589;-50
2022/12/18 04:09:04;;;;;;;42.13;19.67;;;-2.70;99.90;;;;;;5070574;28;20198;-50
2022/12/18 04:11:31;;;;;;;45.13;19.10;;;-2.70;99.90;;;;;;5064558;28;20655;-50
2022/12/18 04:13:59;;;;;;;38.57;18.93;;;-2.70;99.90;;;;;;5062593;28;20207;-50
2022/12/18 04:16:26;;;;;;;30.60;16.47;;;-2.70;99.90;;;;;;5070663;28;20198;-50
2022/12/18 04:18:55;;;;;;;34.40;16.07;;;-2.70;99.90;;;;;;5070622;28;20206;-50
2022/12/18 04:21:22;;;;;;;31.30;16.07;;;-2.70;99.90;;;;;;5069438;28;20376;-50
2022/12/18 04:23:49;;;;;;;27.00;12.83;;;-2.80;99.90;;;;;;5061859;28;20245;-49
2022/12/18 04:26:16;;;;;;;26.37;14.03;;;-2.80;99.90;;;;;;5070054;28;20263;-50
2022/12/18 04:28:43;;;;;;;33.33;14.30;;;-2.80;99.90;;;;;;5070570;28;20252;-49
2022/12/18 04:31:10;;;;;;;24.93;13.23;;;-2.80;99.90;;;;;;5069344;28;20280;-50
2022/12/18 04:33:37;;;;;;;20.73;12.33;;;-2.80;99.90;;;;;;5061367;28;20240;-50
2022/12/18 04:36:06;;;;;;;22.47;9.90;;;-2.90;99.90;;;;;;5069321;28;20935;-50
2022/12/18 04:38:33;;;;;;;26.97;13.50;;;-3.00;99.90;;;;;;5061640;28;20218;-50
2022/12/18 04:41:00;;;;;;;25.20;13.20;;;-3.00;99.90;;;;;;5059342;28;20213;-49
2022/12/18 04:43:27;;;;;;;22.73;11.90;;;-3.20;99.90;;;;;;5061494;28;21009;-50
2022/12/18 04:45:54;;;;;;;28.77;14.33;;;-3.20;99.90;;;;;;5070326;28;20291;-50
2022/12/18 04:48:21;;;;;;;24.57;13.63;;;-3.30;99.90;;;;;;5070462;28;20555;-50
2022/12/18 04:50:49;;;;;;;29.47;13.90;;;-3.40;99.90;;;;;;5069181;28;20217;-50
2022/12/18 04:53:17;;;;;;;32.17;14.83;;;-3.40;99.90;;;;;;5056295;28;20198;-50
2022/12/18 04:55:44;;;;;;;33.53;15.63;;;-3.40;99.90;;;;;;5050411;28;20450;-49
2022/12/18 04:58:11;;;;;;;27.93;15.13;;;-3.30;99.90;;;;;;5050374;28;20444;-50
2022/12/18 05:00:38;;;;;;;30.80;15.20;;;-3.40;99.90;;;;;;5054265;28;20463;-50
2022/12/18 05:03:05;;;;;;;25.17;14.17;;;-3.40;99.90;;;;;;5058209;28;20446;-50
2022/12/18 05:05:32;;;;;;;28.37;14.13;;;-3.40;99.90;;;;;;5050048;28;20219;-50
2022/12/18 05:07:59;;;;;;;31.20;16.97;;;-3.40;99.90;;;;;;5050396;28;20445;-50
2022/12/18 05:10:27;;;;;;;34.30;16.90;;;-3.50;99.90;;;;;;5054077;28;20506;-50
2022/12/18 05:13:01;;;;;;;29.30;14.23;;;-3.50;99.90;;;;;;5061602;28;20942;-51
2022/12/18 05:15:29;;;;;;;33.03;15.43;;;-3.50;99.90;;;;;;5070141;28;20457;-51
2022/12/18 05:17:56;;;;;;;32.60;14.23;;;-3.50;99.90;;;;;;5069818;28;20447;-52
2022/12/18 05:20:24;;;;;;;34.90;14.77;;;-3.50;99.90;;;;;;5069102;28;20280;-52
2022/12/18 05:22:51;;;;;;;33.97;15.33;;;-3.50;99.90;;;;;;5058615;28;20203;-52
2022/12/18 05:25:18;;;;;;;31.07;13.83;;;-3.40;99.90;;;;;;5050336;28;20448;-51
2022/12/18 05:27:47;;;;;;;27.70;14.27;;;-3.40;99.90;;;;;;5050214;28;20496;-50
2022/12/18 05:30:15;;;;;;;30.33;14.07;;;-3.40;99.90;;;;;;5054710;28;20204;-51
2022/12/18 05:32:42;;;;;;;32.50;15.27;;;-3.30;99.90;;;;;;5061984;28;20468;-50
2022/12/18 05:35:11;;;;;;;31.97;14.90;;;-3.30;99.90;;;;;;5069708;28;20217;-50
2022/12/18 05:37:38;;;;;;;30.40;16.63;;;-3.30;99.90;;;;;;5069748;28;20509;-50
2022/12/18 05:40:06;;;;;;;32.87;15.23;;;-3.30;99.90;;;;;;5068848;28;20441;-50
2022/12/18 05:42:33;;;;;;;32.23;15.17;;;-3.40;99.90;;;;;;5061249;28;20265;-50
2022/12/18 05:45:02;;;;;;;37.90;15.83;;;-3.40;99.90;;;;;;5069934;28;20199;-50
2022/12/18 05:47:29;;;;;;;30.57;15.03;;;-3.40;99.90;;;;;;5070672;28;20730;-52
2022/12/18 05:49:56;;;;;;;34.97;17.57;;;-3.50;99.90;;;;;;5073116;28;20293;-50
2022/12/18 05:52:23;;;;;;;45.80;18.30;;;-3.50;99.90;;;;;;5064662;28;20266;-52
2022/12/18 05:54:50;;;;;;;39.40;17.40;;;-3.50;99.90;;;;;;5072549;28;20201;-51
2022/12/18 05:57:17;;;;;;;44.00;19.47;;;-3.50;99.90;;;;;;5073523;28;20199;-52
2022/12/18 05:59:44;;;;;;;45.57;18.57;;;-3.50;99.90;;;;;;5073447;28;20205;-51
2022/12/18 06:02:12;;;;;;;42.57;16.97;;;-3.50;99.90;;;;;;5066617;28;20309;-50
2022/12/18 06:04:39;;;;;;;40.53;17.60;;;-3.50;99.90;;;;;;5070642;28;21000;-50
2022/12/18 06:07:07;;;;;;;39.23;20.30;;;-3.50;99.90;;;;;;5072880;28;21067;-52
2022/12/18 06:09:34;;;;;;;33.43;15.80;;;-3.40;99.90;;;;;;5072843;28;20455;-52
2022/12/18 06:12:00;;;;;;;42.17;19.13;;;-3.30;99.90;;;;;;5067874;28;20218;-52
2022/12/18 06:14:28;;;;;;;44.30;17.10;;;-3.40;99.90;;;;;;5068910;28;20447;-51
2022/12/18 06:16:55;;;;;;;44.37;18.77;;;-3.40;99.90;;;;;;5073036;28;20197;-51
2022/12/18 06:19:23;;;;;;;40.80;18.37;;;-3.40;99.90;;;;;;5073024;28;20281;-52
2022/12/18 06:21:53;;;;;;;45.97;20.60;;;-3.40;99.90;;;;;;5068936;28;20232;-52
2022/12/18 06:24:20;;;;;;;46.97;18.17;;;-3.40;99.90;;;;;;5067806;28;20506;-51
2022/12/18 06:26:47;;;;;;;49.17;20.07;;;-3.40;99.90;;;;;;5072585;28;20640;-51
2022/12/18 06:29:14;;;;;;;51.33;21.37;;;-3.40;99.90;;;;;;5072725;28;20448;-52
2022/12/18 06:31:41;;;;;;;38.10;17.87;;;-3.40;99.90;;;;;;5063426;28;20485;-52
2022/12/18 06:34:08;;;;;;;41.83;18.00;;;-3.30;99.90;;;;;;5058858;28;20504;-52
2022/12/18 06:36:36;;;;;;;43.57;18.60;;;-3.30;99.90;;;;;;5052703;28;20453;-50
2022/12/18 06:39:04;;;;;;;49.93;22.83;;;-3.40;99.90;;;;;;5061207;28;20462;-52
2022/12/18 06:41:31;;;;;;;48.83;22.50;;;-3.40;99.90;;;;;;5061297;28;21668;-52
2022/12/18 06:43:59;;;;;;;40.53;18.90;;;-3.30;99.90;;;;;;5067451;28;20452;-53
2022/12/18 06:46:26;;;;;;;44.67;17.77;;;-3.30;99.90;;;;;;5072079;28;20479;-52
2022/12/18 06:48:53;;;;;;;40.83;18.00;;;-3.30;99.90;;;;;;5058083;28;20449;-52
2022/12/18 06:51:21;;;;;;;36.70;18.03;;;-3.30;99.90;;;;;;5060641;28;20475;-51
2022/12/18 06:53:50;;;;;;;42.30;17.93;;;-3.30;99.90;;;;;;5063806;28;20547;-52
2022/12/18 06:56:17;;;;;;;34.83;18.00;;;-3.30;99.90;;;;;;5072214;28;20524;-51
2022/12/18 06:58:44;;;;;;;37.03;17.60;;;-3.10;99.90;;;;;;5071171;28;20241;-51
2022/12/18 07:01:13;;;;;;;37.20;15.97;;;-3.10;99.90;;;;;;5064651;28;20522;-52
2022/12/18 07:03:41;;;;;;;37.23;20.00;;;-3.20;99.90;;;;;;5069767;28;20193;-50
2022/12/18 07:06:13;;;;;;;44.10;20.00;;;-3.20;99.90;;;;;;5071929;28;21162;-50
2022/12/18 07:08:40;;;;;;;43.60;19.40;;;-3.10;99.90;;;;;;5072033;28;20449;-49
2022/12/18 07:11:09;;;;;;;43.17;19.17;;;-3.10;99.90;;;;;;5067804;28;20491;-50
2022/12/18 07:13:36;;;;;;;42.70;18.33;;;-3.10;99.90;;;;;;5063398;28;20500;-50
2022/12/18 07:16:08;;;;;;;35.67;17.40;;;-3.10;99.90;;;;;;5071710;28;20200;-50
2022/12/18 07:18:35;;;;;;;42.73;18.47;;;-3.10;99.90;;;;;;5052033;28;20687;-50
2022/12/18 07:21:05;;;;;;;32.00;15.60;;;-3.10;99.90;;;;;;5064956;28;20293;-50
2022/12/18 07:23:33;;;;;;;40.27;17.47;;;-3.10;99.90;;;;;;5081234;22;20254;-51
2022/12/18 07:26:03;;;;;;;38.27;17.57;;;-3.00;99.90;;;;;;5060164;28;20281;-51
2022/12/18 07:28:31;;;;;;;42.70;20.73;;;-3.00;99.90;;;;;;5055193;28;20285;-51
2022/12/18 07:30:59;;;;;;;55.37;23.67;;;-3.00;99.90;;;;;;5064561;28;20350;-51
2022/12/18 07:33:27;;;;;;;42.07;19.37;;;-3.00;99.90;;;;;;5065202;28;20334;-51
2022/12/18 07:35:54;;;;;;;41.53;19.17;;;-3.00;99.90;;;;;;5033358;28;20203;-51
2022/12/18 07:38:21;;;;;;;37.57;18.47;;;-3.10;99.90;;;;;;5047045;28;20264;-52
2022/12/18 07:40:48;;;;;;;36.57;18.10;;;-3.10;99.90;;;;;;5064248;28;20268;-51
2022/12/18 07:43:15;;;;;;;40.37;19.17;;;-3.00;99.90;;;;;;5063528;28;20271;-51
2022/12/18 07:45:44;;;;;;;33.53;18.47;;;-3.00;99.90;;;;;;5048180;28;20248;-50
2022/12/18 07:48:11;;;;;;;40.00;18.37;;;-3.00;99.90;;;;;;5046873;28;20218;-51
2022/12/18 07:50:39;;;;;;;35.17;17.93;;;-2.90;99.90;;;;;;5048360;28;20198;-51
2022/12/18 07:53:06;;;;;;;36.40;19.13;;;-2.90;99.90;;;;;;5062282;28;20298;-50
2022/12/18 07:55:33;;;;;;;37.67;17.17;;;-2.90;99.90;;;;;;5069470;28;20201;-52
2022/12/18 07:58:03;;;;;;;41.93;18.90;;;-2.90;99.90;;;;;;5052329;28;20625;-51
2022/12/18 08:00:30;;;;;;;42.43;18.87;;;-2.90;99.90;;;;;;5038555;28;20454;-51
2022/12/18 08:02:58;;;;;;;43.77;19.23;;;-2.80;99.90;;;;;;5043756;28;20214;-51
2022/12/18 08:05:25;;;;;;;36.37;19.20;;;-2.80;99.90;;;;;;5070533;28;20992;-51
2022/12/18 08:07:53;;;;;;;34.47;19.30;;;-2.70;99.90;;;;;;5046475;28;20478;-51
2022/12/18 08:10:20;;;;;;;33.67;17.03;;;-2.60;99.90;;;;;;5033179;28;20211;-51
2022/12/18 08:12:50;;;;;;;38.97;18.37;;;-2.50;99.90;;;;;;5036445;28;20218;-51
2022/12/18 08:15:17;;;;;;;33.43;17.23;;;-2.50;99.90;;;;;;5049297;28;20753;-50
2022/12/18 08:17:44;;;;;;;31.20;16.83;;;-2.50;99.90;;;;;;5031894;28;20199;-52
2022/12/18 08:20:14;;;;;;;27.97;13.63;;;-2.40;99.90;;;;;;5032042;28;20199;-51
2022/12/18 08:22:41;;;;;;;33.27;17.10;;;-2.40;99.90;;;;;;5039684;28;20232;-51
2022/12/18 08:25:09;;;;;;;37.20;17.13;;;-2.40;99.90;;;;;;5049873;28;20740;-51
2022/12/18 08:27:36;;;;;;;31.87;15.33;;;-2.40;99.90;;;;;;5044389;28;20469;-52
2022/12/18 08:30:05;;;;;;;26.00;14.37;;;-2.40;99.90;;;;;;5040350;28;20446;-50
2022/12/18 08:32:32;;;;;;;27.57;13.70;;;-2.40;99.90;;;;;;5044120;28;20610;-51
2022/12/18 08:34:59;;;;;;;26.40;13.30;;;-2.40;99.90;;;;;;5048756;28;20515;-51
2022/12/18 08:37:28;;;;;;;28.80;14.07;;;-2.40;99.90;;;;;;5050074;28;20249;-51
2022/12/18 08:39:55;;;;;;;36.17;15.77;;;-2.40;99.90;;;;;;5050132;28;20199;-51
2022/12/18 08:45:07;;;;;;;33.77;15.70;;;-2.40;99.90;;;;;;5031008;28;20203;-51
2022/12/18 08:47:34;;;;;;;29.73;14.87;;;-2.40;99.90;;;;;;5031551;28;20223;-52
2022/12/18 08:50:01;;;;;;;34.87;16.33;;;-2.30;99.90;;;;;;5031597;28;20258;-51
2022/12/18 08:52:32;;;;;;;33.10;14.07;;;-2.40;99.90;;;;;;5031511;28;20232;-52
2022/12/18 08:54:59;;;;;;;27.77;15.07;;;-2.40;99.90;;;;;;5031587;28;20207;-52
2022/12/18 08:57:26;;;;;;;29.60;15.77;;;-2.30;99.90;;;;;;5037498;28;20623;-50
2022/12/18 08:59:53;;;;;;;30.33;14.40;;;-2.30;99.90;;;;;;5035173;28;20262;-51
2022/12/18 09:02:20;;;;;;;28.03;13.23;;;-2.30;99.90;;;;;;5031309;28;20278;-50
2022/12/18 09:04:48;;;;;;;31.50;14.17;;;-2.30;99.90;;;;;;5031265;28;20207;-52
2022/12/18 09:07:15;;;;;;;28.00;13.67;;;-2.30;99.90;;;;;;5031532;28;20225;-51
2022/12/18 09:09:44;;;;;;;25.30;13.43;;;-2.40;99.90;;;;;;5035965;28;20245;-51
2022/12/18 09:12:11;;;;;;;26.43;14.40;;;-2.30;99.90;;;;;;5045038;28;20277;-52
2022/12/18 09:14:38;;;;;;;30.03;13.87;;;-2.30;99.90;;;;;;5044790;28;20204;-50
2022/12/18 09:17:05;;;;;;;28.33;14.77;;;-2.10;99.90;;;;;;5044366;28;20200;-50
2022/12/18 09:19:32;;;;;;;26.53;13.90;;;-2.00;99.90;;;;;;5044852;28;20246;-51
2022/12/18 09:21:59;;;;;;;30.43;14.67;;;-2.00;99.90;;;;;;5057339;28;20601;-50
2022/12/18 09:24:26;;;;;;;32.80;16.23;;;-2.10;99.90;;;;;;5046592;28;20205;-49
2022/12/18 09:26:56;;;;;;;27.00;13.43;;;-2.00;99.90;;;;;;5053023;28;20210;-49
2022/12/18 09:29:23;;;;;;;31.63;14.23;;;-2.00;99.90;;;;;;5060916;28;20246;-48
2022/12/18 09:31:53;;;;;;;31.80;14.13;;;-2.00;99.90;;;;;;5062712;28;20219;-49
2022/12/18 09:34:21;;;;;;;32.50;14.17;;;-2.00;99.90;;;;;;5044043;28;20245;-49
2022/12/18 09:36:52;;;;;;;30.37;14.47;;;-2.10;99.90;;;;;;5035135;28;20196;-49
2022/12/18 09:39:19;;;;;;;29.50;16.20;;;-2.00;99.90;;;;;;5049924;28;20248;-49
2022/12/18 09:41:49;;;;;;;25.53;13.73;;;-2.00;99.90;;;;;;5054611;28;20391;-50
2022/12/18 09:44:25;;;;;;;31.77;15.23;;;-2.00;99.90;;;;;;5053257;28;20199;-51
2022/12/18 09:47:09;;;;;;;25.60;13.90;;;-2.10;99.90;;;;;;5042291;28;20265;-50
2022/12/18 09:49:41;;;;;;;31.07;15.33;;;-2.30;99.90;;;;;;5044912;28;20671;-50
2022/12/18 09:52:14;;;;;;;30.80;15.27;;;-2.50;99.90;;;;;;5054470;28;20637;-50
2022/12/18 09:54:43;;;;;;;29.17;13.23;;;-2.30;99.90;;;;;;5054587;28;20207;-50
2022/12/18 09:57:15;;;;;;;33.97;14.13;;;-2.20;99.90;;;;;;5054526;28;20612;-50
2022/12/18 09:59:49;;;;;;;22.73;13.53;;;-2.00;99.90;;;;;;5054463;28;20293;-50
2022/12/18 10:02:18;;;;;;;27.90;13.83;;;-1.90;99.90;;;;;;5054564;28;20229;-50
2022/12/18 10:04:54;;;;;;;20.50;12.07;;;-1.80;99.90;;;;;;5054347;28;20583;-51
2022/12/18 10:07:29;;;;;;;30.70;14.07;;;-1.70;99.90;;;;;;5037316;28;20771;-50
2022/12/18 10:10:05;;;;;;;29.83;13.17;;;-1.90;99.90;;;;;;5056555;28;20718;-50
2022/12/18 10:12:42;;;;;;;27.53;13.07;;;-1.70;99.90;;;;;;5046604;28;20216;-50
2022/12/18 10:15:18;;;;;;;33.70;13.93;;;-1.60;99.90;;;;;;5053976;28;20209;-50
2022/12/18 10:17:50;;;;;;;32.07;13.70;;;-1.40;99.90;;;;;;5054328;28;20285;-50
2022/12/18 10:20:26;;;;;;;28.90;13.60;;;-1.20;99.90;;;;;;5049319;28;20207;-50
2022/12/18 10:22:59;;;;;;;27.70;12.77;;;-1.20;99.90;;;;;;5064814;28;20231;-51
2022/12/18 10:25:32;;;;;;;22.97;12.57;;;-1.20;99.90;;;;;;5073807;28;20206;-51
2022/12/18 10:28:11;;;;;;;29.40;13.07;;;-1.20;99.90;;;;;;5072154;28;20227;-51
2022/12/18 10:30:40;;;;;;;31.17;14.60;;;-1.40;99.90;;;;;;5051265;28;20769;-51
2022/12/18 10:33:11;;;;;;;32.83;13.40;;;-1.40;99.90;;;;;;5053318;28;20776;-50
2022/12/18 10:35:42;;;;;;;27.40;15.13;;;-1.10;99.90;;;;;;5053668;28;20641;-50
2022/12/18 10:38:22;;;;;;;30.50;15.17;;;-1.00;99.90;;;;;;5051902;28;20198;-50
2022/12/18 10:40:52;;;;;;;31.87;15.33;;;-0.80;99.90;;;;;;5052925;28;20264;-51
2022/12/18 10:43:23;;;;;;;32.13;15.43;;;-0.70;99.90;;;;;;5052879;28;20591;-51
2022/12/18 10:46:17;;;;;;;34.83;16.73;;;-0.70;99.90;;;;;;5053350;28;20689;-50
2022/12/18 10:48:53;;;;;;;30.63;15.40;;;-0.90;99.90;;;;;;5044723;28;21682;-51
2022/12/18 10:51:24;;;;;;;31.17;15.47;;;-0.90;99.90;;;;;;5048152;28;20199;-53
2022/12/18 10:53:56;;;;;;;35.70;16.37;;;-0.90;99.90;;;;;;5052969;28;20224;-51
2022/12/18 10:56:25;;;;;;;31.70;15.97;;;-0.90;99.90;;;;;;5053336;28;20251;-50
2022/12/18 10:58:58;;;;;;;41.60;18.53;;;-1.00;99.90;;;;;;5046655;28;20722;-51
2022/12/18 11:01:28;;;;;;;37.20;16.97;;;-0.90;99.90;;;;;;5048798;28;20202;-49
2022/12/18 11:04:09;;;;;;;35.40;15.67;;;-0.90;99.90;;;;;;5052693;28;20266;-51
2022/12/18 11:06:58;;;;;;;33.97;16.57;;;-0.80;99.90;;;;;;5052974;28;20293;-51
2022/12/18 11:09:26;;;;;;;37.27;16.60;;;-0.70;99.90;;;;;;5045166;28;20207;-51
2022/12/18 11:11:56;;;;;;;33.07;15.10;;;-0.70;99.90;;;;;;5063635;28;20264;-51
2022/12/18 11:14:25;;;;;;;30.03;16.33;;;-0.60;99.90;;;;;;5072588;28;20206;-50
2022/12/18 11:16:56;;;;;;;37.90;17.60;;;-0.80;99.90;;;;;;5062203;28;20203;-51
2022/12/18 11:19:31;;;;;;;37.43;18.10;;;-1.00;99.90;;;;;;5053335;28;20198;-51
2022/12/18 11:21:59;;;;;;;31.47;16.07;;;-1.20;99.90;;;;;;5056653;28;20335;-49
2022/12/18 11:24:31;;;;;;;42.17;19.07;;;-1.00;99.90;;;;;;5072326;28;20207;-50
2022/12/18 11:27:01;;;;;;;39.83;17.23;;;-1.00;99.90;;;;;;5060124;28;20204;-53
2022/12/18 11:29:36;;;;;;;43.07;18.13;;;-1.20;99.90;;;;;;5041810;28;20216;-53
2022/12/18 11:32:29;;;;;;;40.43;18.03;;;-1.00;99.90;;;;;;5042672;28;20218;-51
2022/12/18 11:35:03;;;;;;;38.33;17.97;;;-0.90;99.90;;;;;;5043976;28;20204;-51
2022/12/18 11:37:32;;;;;;;44.10;20.27;;;-0.90;99.90;;;;;;5044929;28;20194;-50
2022/12/18 11:40:03;;;;;;;37.40;17.77;;;-0.90;99.90;;;;;;5052964;28;20215;-53
2022/12/18 11:42:38;;;;;;;41.63;19.17;;;-0.80;99.90;;;;;;5052399;28;20224;-51
2022/12/18 11:45:26;;;;;;;40.33;18.93;;;-0.70;99.90;;;;;;5052387;28;20194;-51
2022/12/18 11:48:00;;;;;;;38.87;16.07;;;-0.60;99.90;;;;;;5071611;28;20222;-52
2022/12/18 11:50:30;;;;;;;33.30;16.67;;;-0.50;99.90;;;;;;5051776;28;20657;-52
2022/12/18 11:52:57;;;;;;;37.67;16.33;;;-0.60;99.90;;;;;;5052122;28;20279;-51
2022/12/18 11:55:37;;;;;;;38.33;16.70;;;-0.50;99.90;;;;;;5051886;28;20210;-52
2022/12/18 11:58:13;;;;;;;36.90;16.57;;;-0.40;99.90;;;;;;5052339;28;20201;-52
2022/12/18 12:00:50;;;;;;;36.13;16.83;;;-0.40;99.90;;;;;;5052144;28;20295;-51
2022/12/18 12:03:57;;;;;;;39.50;19.17;;;-0.40;99.90;;;;;;5040463;28;20224;-52
2022/12/18 12:06:33;;;;;;;39.30;18.23;;;-0.40;99.90;;;;;;5023911;28;20207;-51
2022/12/18 12:09:11;;;;;;;40.03;17.93;;;-0.50;99.90;;;;;;5071809;28;20252;-51
2022/12/18 12:11:54;;;;;;;38.97;17.73;;;-0.40;99.90;;;;;;5071759;28;20207;-53
2022/12/18 12:14:35;;;;;;;38.43;17.07;;;-0.50;99.90;;;;;;5063788;28;20255;-52
2022/12/18 12:17:10;;;;;;;37.30;17.73;;;-0.40;99.90;;;;;;5052695;28;20202;-51
2022/12/18 12:19:48;;;;;;;32.17;16.27;;;-0.40;99.90;;;;;;5051817;28;20270;-51
2022/12/18 12:22:24;;;;;;;33.33;15.83;;;-0.30;99.90;;;;;;5049400;28;20231;-51
2022/12/18 12:25:03;;;;;;;43.53;18.03;;;-0.30;99.90;;;;;;5033767;28;20245;-50
2022/12/18 12:27:40;;;;;;;33.93;15.27;;;-0.40;99.90;;;;;;5059650;28;20671;-51
2022/12/18 12:30:09;;;;;;;35.87;15.30;;;-0.30;99.90;;;;;;5051745;28;20208;-51
2022/12/18 12:32:50;;;;;;;34.97;16.93;;;-0.30;99.90;;;;;;5042434;28;20216;-52
2022/12/18 12:35:32;;;;;;;39.37;18.23;;;-0.30;99.90;;;;;;5062743;28;20210;-51
2022/12/18 12:38:10;;;;;;;35.67;16.87;;;-0.30;99.90;;;;;;5060788;28;20194;-50
2022/12/18 12:40:42;;;;;;;32.67;15.90;;;-0.30;99.90;;;;;;5040593;28;20720;-51
2022/12/18 12:43:23;;;;;;;37.33;18.10;;;-0.30;99.90;;;;;;5041096;28;20225;-51
2022/12/18 12:45:54;;;;;;;32.03;16.80;;;-0.30;99.90;;;;;;5062872;28;20192;-51